aviador You're here:

KVNC Decoded Metar

in
Report Time2017-07-23 06:55:00
UTC Time2017-07-23 06:51:53
Flight Rules vfr VFR
Wind110° at 05 kt
W.Decomp.*RWY 13: 4.7 kt HW 1.7 kt LCW
RWY 05: 2.5 kt HW 4.3 kt RCW
W.Rank110° ranks 10
Current wind is below 110° avg. (6.2)
Visibility9999 m
Phenomena:N/A
Clouds:N/A
CeilingNone
Temp26°C
Dew Point26°C (100% RH)
QNH1018 hPa
Raw Report
METAR KVNC 230655Z AUTO 11005KT 10SM CLR 26/26 A3005 RMK AO2 LTG
DSNT N=

Extra information for KVNC:More info

Social comments